createdAt,value
2023-02-02T00:00:17.353Z,-.91
2023-02-02T00:00:47.239Z,-.97
2023-02-02T00:01:18.466Z,-1.04
2023-02-02T00:01:48.469Z,-.97
2023-02-02T00:02:19.561Z,-1.13
2023-02-02T00:02:50.314Z,-1.04
2023-02-02T00:03:22.032Z,-2.51
2023-02-02T00:03:52.184Z,-1.44
2023-02-02T00:04:23.636Z,-.83
2023-02-02T00:04:54.669Z,-.77
2023-02-02T00:05:25.823Z,-1.06
2023-02-02T00:05:56.961Z,-.16
2023-02-02T00:06:27.855Z,-.11
2023-02-02T00:06:59.072Z,-.47
2023-02-02T00:07:30.244Z,-.27
2023-02-02T00:07:59.968Z,-.27
2023-02-02T00:08:31.632Z,-1.21
2023-02-02T00:09:02.193Z,-1.50
2023-02-02T00:09:33.579Z,-1.50
2023-02-02T00:10:05.590Z,-1.42
2023-02-02T00:10:36.216Z,-1.42
2023-02-02T00:11:06.926Z,.45
2023-02-02T00:11:38.175Z,-2.05
2023-02-02T00:12:08.249Z,-1.25
2023-02-02T00:12:39.520Z,-1.15
2023-02-02T00:13:10.081Z,-.61
2023-02-02T00:13:42.225Z,-.47
2023-02-02T00:14:11.971Z,-.47
2023-02-02T00:14:44.692Z,.20
2023-02-02T00:15:14.606Z,-.36
2023-02-02T00:15:46.388Z,-.77
2023-02-02T00:16:16.983Z,-1.03
2023-02-02T00:16:47.536Z,-1.42
2023-02-02T00:17:17.988Z,-2.08
2023-02-02T00:17:49.937Z,-1.25
2023-02-02T00:18:20.073Z,-2.12
2023-02-02T00:18:51.636Z,-2.27
2023-02-02T00:19:22.353Z,-1.79
2023-02-02T00:19:53.978Z,-.21
2023-02-02T00:20:25.176Z,-1.03
2023-02-02T00:20:55.618Z,-1.26
2023-02-02T00:21:27.038Z,-1.26
2023-02-02T00:21:57.569Z,-1.26
2023-02-02T00:22:27.970Z,-1.26
2023-02-02T00:22:59.675Z,-1.26
2023-02-02T00:23:29.965Z,-1.26
2023-02-02T00:24:01.689Z,-1.26
2023-02-02T00:24:32.319Z,-1.67
2023-02-02T00:25:04.345Z,-1.26
2023-02-02T00:25:33.936Z,-.79
2023-02-02T00:26:05.544Z,-.89
2023-02-02T00:26:37.163Z,.08
2023-02-02T00:27:08.093Z,-.62
2023-02-02T00:27:37.921Z,-1.21
2023-02-02T00:28:09.801Z,-1.55
2023-02-02T00:28:39.925Z,-1.93
2023-02-02T00:29:11.552Z,.32
2023-02-02T00:29:41.951Z,-.63
2023-02-02T00:30:14.903Z,-1.77
2023-02-02T00:30:44.518Z,.07
2023-02-02T00:31:15.616Z,1.40
2023-02-02T00:31:47.017Z,-1.55
2023-02-02T00:32:17.993Z,-1.95
2023-02-02T00:32:48.315Z,-1.12
2023-02-02T00:33:19.566Z,-1.12
2023-02-02T00:33:49.962Z,-1.67
2023-02-02T00:34:21.663Z,-2.12
2023-02-02T00:34:51.944Z,-1.55
2023-02-02T00:35:24.346Z,-2.22
2023-02-02T00:35:53.940Z,-2.12
2023-02-02T00:36:25.560Z,-1.18
2023-02-02T00:36:57.560Z,-.62
2023-02-02T00:37:27.575Z,-1.45
2023-02-02T00:37:58.337Z,-.35
2023-02-02T00:38:29.141Z,-.12
2023-02-02T00:39:00.115Z,-.70
2023-02-02T00:39:31.556Z,-.16
2023-02-02T00:40:02.759Z,-.62
2023-02-02T00:40:40.945Z,-.70
2023-02-02T00:41:04.294Z,-.79
2023-02-02T00:41:35.589Z,.57
2023-02-02T00:42:06.978Z,-.84
2023-02-02T00:42:37.519Z,-.84
2023-02-02T00:43:07.977Z,-.84
2023-02-02T00:43:39.541Z,-.93
2023-02-02T00:44:09.951Z,-.93
2023-02-02T00:44:41.718Z,-1.15
2023-02-02T00:45:12.722Z,-1.00
2023-02-02T00:45:43.610Z,-1.26
2023-02-02T00:46:14.199Z,-1.26
2023-02-02T00:46:45.619Z,-1.67
2023-02-02T00:47:17.340Z,-1.26
2023-02-02T00:47:47.587Z,-.85
2023-02-02T00:48:17.984Z,-.97
2023-02-02T00:48:49.665Z,-.97
2023-02-02T00:49:20.134Z,-.12
2023-02-02T00:49:51.528Z,-.12
2023-02-02T00:50:22.457Z,-.27
2023-02-02T00:50:53.648Z,1.08
2023-02-02T00:51:24.302Z,1.08
2023-02-02T00:51:55.880Z,.25
2023-02-02T00:52:27.022Z,.86
2023-02-02T00:52:57.716Z,.13
2023-02-02T00:53:27.939Z,-.45
2023-02-02T00:54:00.283Z,-.45
2023-02-02T00:54:29.942Z,-.10
2023-02-02T00:55:02.384Z,.46
2023-02-02T00:55:32.004Z,-.16
2023-02-02T00:56:03.639Z,.71
2023-02-02T00:56:33.986Z,-1.58
2023-02-02T00:57:05.527Z,-1.04
2023-02-02T00:57:37.000Z,.25
2023-02-02T00:58:07.983Z,.48
2023-02-02T00:58:38.047Z,.03
2023-02-02T00:59:09.641Z,-1.72
2023-02-02T00:59:39.943Z,-.12
2023-02-02T01:00:12.556Z,.32
2023-02-02T01:00:48.415Z,.02
2023-02-02T01:01:13.602Z,.02
2023-02-02T01:01:44.304Z,-1.27
2023-02-02T01:02:15.603Z,-1.36
2023-02-02T01:02:47.044Z,-1.29
2023-02-02T01:03:17.572Z,.32
2023-02-02T01:03:47.949Z,-.41
2023-02-02T01:04:19.929Z,-1.68
2023-02-02T01:04:50.344Z,-1.10
2023-02-02T01:05:22.700Z,-.40
2023-02-02T01:05:52.062Z,-.40
2023-02-02T01:06:23.525Z,-.40
2023-02-02T01:06:53.943Z,-.40
2023-02-02T01:07:26.217Z,-.40
2023-02-02T01:07:57.021Z,-.40
2023-02-02T01:08:27.888Z,-.40
2023-02-02T01:08:58.370Z,-.40
2023-02-02T01:09:29.758Z,-.82
2023-02-02T01:10:00.585Z,-.82
2023-02-02T01:10:31.565Z,-.12
2023-02-02T01:11:01.949Z,-.12
2023-02-02T01:11:33.580Z,-.47
2023-02-02T01:12:04.257Z,-.47
2023-02-02T01:12:35.775Z,-.47
2023-02-02T01:13:06.932Z,-.47
2023-02-02T01:13:37.539Z,-.47
2023-02-02T01:14:07.947Z,-.47
2023-02-02T01:14:39.531Z,-1.15
2023-02-02T01:15:11.144Z,-1.71
2023-02-02T01:15:42.169Z,-1.71
2023-02-02T01:16:11.980Z,-1.30
2023-02-02T01:16:43.904Z,-.33
2023-02-02T01:17:14.093Z,-.49
2023-02-02T01:17:45.849Z,-.85
2023-02-02T01:18:17.139Z,-.26
2023-02-02T01:18:48.219Z,-.82
2023-02-02T01:19:17.985Z,-.70
2023-02-02T01:19:49.872Z,-1.10
2023-02-02T01:20:20.322Z,-2.01
2023-02-02T01:20:52.450Z,-1.37
2023-02-02T01:21:21.944Z,-1.54
2023-02-02T01:21:53.901Z,-.92
2023-02-02T01:22:24.329Z,-.85
2023-02-02T01:22:56.219Z,-.59
2023-02-02T01:23:27.434Z,-.59
2023-02-02T01:23:57.548Z,.21
2023-02-02T01:24:29.435Z,-.41
2023-02-02T01:25:00.355Z,-1.54
2023-02-02T01:25:30.039Z,-.82
2023-02-02T01:26:02.213Z,-1.96
2023-02-02T01:26:32.156Z,-1.34
2023-02-02T01:27:04.452Z,-1.04
2023-02-02T01:27:34.895Z,-.53
2023-02-02T01:28:06.176Z,-.50
2023-02-02T01:28:37.349Z,-1.16
2023-02-02T01:29:08.063Z,-.35
2023-02-02T01:29:38.439Z,-.13
2023-02-02T01:30:12.328Z,-.99
2023-02-02T01:30:40.058Z,-.68
2023-02-02T01:31:11.912Z,-1.09
2023-02-02T01:31:42.368Z,.37
2023-02-02T01:32:14.031Z,-.40
2023-02-02T01:32:44.466Z,-1.25
2023-02-02T01:33:16.058Z,-.37
2023-02-02T01:33:47.376Z,-.64
2023-02-02T01:34:18.137Z,-1.12
2023-02-02T01:34:47.927Z,-.12
2023-02-02T01:35:20.628Z,-1.42
2023-02-02T01:35:50.114Z,-.40
2023-02-02T01:36:22.100Z,-.47
2023-02-02T01:36:52.210Z,-.82
2023-02-02T01:37:23.821Z,-1.24
2023-02-02T01:37:54.207Z,-.85
2023-02-02T01:38:25.355Z,-.67
2023-02-02T01:38:57.108Z,.55
2023-02-02T01:39:28.122Z,-.47
2023-02-02T01:39:58.198Z,-.56
2023-02-02T01:40:36.487Z,-.41
2023-02-02T01:41:00.254Z,-.56
2023-02-02T01:41:31.811Z,-1.18
2023-02-02T01:42:02.454Z,-.73
2023-02-02T01:42:33.925Z,-2.06
2023-02-02T01:43:04.556Z,-1.09
2023-02-02T01:43:36.036Z,-1.35
2023-02-02T01:44:07.234Z,-1.35
2023-02-02T01:44:37.914Z,-.35
2023-02-02T01:45:09.718Z,-1.26
2023-02-02T01:45:40.351Z,.13
2023-02-02T01:46:09.956Z,-.70
2023-02-02T01:46:41.652Z,-.93
2023-02-02T01:47:13.262Z,-.84
2023-02-02T01:47:44.298Z,-.41
2023-02-02T01:48:13.916Z,-2.44
2023-02-02T01:48:45.542Z,-.84
2023-02-02T01:49:16.916Z,-1.69
2023-02-02T01:49:47.521Z,-1.67
2023-02-02T01:50:18.861Z,.03
2023-02-02T01:50:49.629Z,-1.72
2023-02-02T01:51:20.009Z,-1.15
2023-02-02T01:51:51.586Z,-.89
2023-02-02T01:52:21.946Z,-1.11
2023-02-02T01:52:53.723Z,-1.82
2023-02-02T01:53:24.215Z,-.55
2023-02-02T01:53:55.739Z,-1.33
2023-02-02T01:54:27.369Z,-.49
2023-02-02T01:54:58.017Z,-1.82
2023-02-02T01:55:28.672Z,-.10
2023-02-02T01:55:59.600Z,-1.29
2023-02-02T01:56:29.926Z,-.16
2023-02-02T01:57:01.558Z,-.06
2023-02-02T01:57:31.902Z,-.69
2023-02-02T01:58:03.712Z,-1.73
2023-02-02T01:58:34.381Z,-1.86
2023-02-02T01:59:05.537Z,-1.29
2023-02-02T01:59:37.344Z,-.36
2023-02-02T02:00:08.402Z,-.11
2023-02-02T02:00:38.120Z,.05
2023-02-02T02:01:10.117Z,-.16
2023-02-02T02:01:39.902Z,.28
2023-02-02T02:02:11.584Z,-1.42
2023-02-02T02:02:42.003Z,-.99
2023-02-02T02:03:13.568Z,-.94
2023-02-02T02:03:44.419Z,-.61
2023-02-02T02:04:15.594Z,-.94
2023-02-02T02:04:46.966Z,-.99
2023-02-02T02:05:18.110Z,-1.18
2023-02-02T02:05:48.013Z,-1.33
2023-02-02T02:06:19.603Z,-.73
2023-02-02T02:06:49.948Z,-2.25
2023-02-02T02:07:21.797Z,-1.09
2023-02-02T02:07:51.912Z,-1.78
2023-02-02T02:08:23.549Z,-1.86
2023-02-02T02:08:53.929Z,-2.59
2023-02-02T02:09:26.542Z,-3.35
2023-02-02T02:09:56.919Z,-2.45
2023-02-02T02:10:28.069Z,-2.95
2023-02-02T02:10:57.930Z,-3.56
2023-02-02T02:11:30.233Z,-3.16
2023-02-02T02:12:00.475Z,-2.77
2023-02-02T02:12:31.553Z,-2.09
2023-02-02T02:13:02.215Z,-2.47
2023-02-02T02:13:33.621Z,-3.82
2023-02-02T02:14:04.260Z,-3.64
2023-02-02T02:14:35.937Z,-4.14
2023-02-02T02:15:07.674Z,-4.84
2023-02-02T02:15:37.559Z,-4.41
2023-02-02T02:16:07.899Z,-4.30
2023-02-02T02:16:39.586Z,-3.96
2023-02-02T02:17:09.893Z,-4.02
2023-02-02T02:17:41.607Z,-4.16
2023-02-02T02:18:11.927Z,-3.94
2023-02-02T02:18:43.528Z,-4.40
2023-02-02T02:19:13.888Z,-4.40
2023-02-02T02:19:45.561Z,-3.32
2023-02-02T02:20:17.424Z,-3.32
2023-02-02T02:20:47.530Z,-2.53
2023-02-02T02:21:18.000Z,-2.68
2023-02-02T02:21:49.559Z,-2.33
2023-02-02T02:22:19.904Z,-2.68
2023-02-02T02:22:51.551Z,-3.37
2023-02-02T02:23:22.229Z,-2.99
2023-02-02T02:23:53.556Z,-2.81
2023-02-02T02:24:24.506Z,-3.08
2023-02-02T02:24:55.514Z,-3.71
2023-02-02T02:25:27.613Z,-3.88
2023-02-02T02:25:57.848Z,-3.84
2023-02-02T02:26:28.277Z,-4.98
2023-02-02T02:26:59.912Z,-2.36
2023-02-02T02:27:30.201Z,-3.21
2023-02-02T02:28:02.113Z,-4.15
2023-02-02T02:28:32.347Z,-3.03
2023-02-02T02:29:03.616Z,-3.58
2023-02-02T02:29:33.891Z,-3.58
2023-02-02T02:30:06.847Z,-3.42
2023-02-02T02:30:37.410Z,-3.58
2023-02-02T02:31:08.063Z,-3.42
2023-02-02T02:31:38.086Z,-4.01
2023-02-02T02:32:09.891Z,-3.58
2023-02-02T02:32:40.011Z,-3.69
2023-02-02T02:33:11.646Z,-3.12
2023-02-02T02:33:42.292Z,-2.48
2023-02-02T02:34:14.295Z,-4.37
2023-02-02T02:34:45.424Z,-4.28
2023-02-02T02:35:16.879Z,-3.69
2023-02-02T02:35:47.023Z,-2.48
2023-02-02T02:36:18.062Z,-2.69
2023-02-02T02:36:48.527Z,-4.15
2023-02-02T02:37:19.733Z,-2.36
2023-02-02T02:37:50.103Z,-2.06
2023-02-02T02:38:21.137Z,-3.77
2023-02-02T02:38:52.497Z,-4.37
2023-02-02T02:39:23.540Z,-2.48
2023-02-02T02:39:54.203Z,-2.60
2023-02-02T02:40:26.376Z,-2.82
2023-02-02T02:40:57.130Z,-3.16
2023-02-02T02:41:28.064Z,-3.07
2023-02-02T02:41:58.109Z,-1.92
2023-02-02T02:42:29.814Z,-3.83
2023-02-02T02:43:00.241Z,-3.63
2023-02-02T02:43:31.799Z,-3.16
2023-02-02T02:44:02.207Z,-2.48
2023-02-02T02:44:33.856Z,-1.93
2023-02-02T02:45:05.839Z,-2.58
2023-02-02T02:45:36.200Z,-3.25
2023-02-02T02:46:07.192Z,-2.82
2023-02-02T02:46:37.834Z,-1.92
2023-02-02T02:47:08.254Z,-2.82
2023-02-02T02:47:39.844Z,-3.34
2023-02-02T02:48:10.197Z,-2.31
2023-02-02T02:48:41.503Z,-3.07
2023-02-02T02:49:12.068Z,-1.92
2023-02-02T02:49:43.899Z,-2.05
2023-02-02T02:50:14.759Z,-2.18
2023-02-02T02:50:46.175Z,-.11
2023-02-02T02:51:17.208Z,-2.60
2023-02-02T02:51:47.590Z,-3.34
2023-02-02T02:52:18.779Z,-3.71
2023-02-02T02:52:50.021Z,-3.25
2023-02-02T02:53:20.029Z,-2.05
2023-02-02T02:53:51.969Z,-2.82
2023-02-02T02:54:22.134Z,-3.25
2023-02-02T02:54:54.701Z,-3.25
2023-02-02T02:55:25.435Z,-2.31
2023-02-02T02:55:55.945Z,-2.05
2023-02-02T02:56:27.323Z,-2.18
2023-02-02T02:56:57.698Z,-2.49
2023-02-02T02:57:27.929Z,-2.82
2023-02-02T02:58:00.117Z,-.11
2023-02-02T02:58:30.112Z,-2.18
2023-02-02T02:59:01.919Z,-.11
2023-02-02T02:59:31.944Z,-1.92
2023-02-02T03:00:04.602Z,-3.34
2023-02-02T03:00:35.276Z,-2.31
2023-02-02T03:01:06.010Z,-2.71
2023-02-02T03:01:37.799Z,-2.31
2023-02-02T03:02:07.595Z,-2.18
2023-02-02T03:02:38.036Z,-2.71
2023-02-02T03:03:09.632Z,-2.71
2023-02-02T03:03:40.028Z,-2.71
2023-02-02T03:04:12.485Z,-2.71
2023-02-02T03:04:42.163Z,-2.71
2023-02-02T03:05:13.943Z,-2.31
2023-02-02T03:05:44.780Z,-1.92
2023-02-02T03:06:15.875Z,-2.31
2023-02-02T03:06:47.089Z,-3.55
2023-02-02T03:07:17.846Z,-3.16
2023-02-02T03:07:48.132Z,-2.92
2023-02-02T03:08:20.063Z,-2.92
2023-02-02T03:08:50.081Z,-2.60
2023-02-02T03:09:22.118Z,-.11
2023-02-02T03:09:52.152Z,-.11
2023-02-02T03:10:24.421Z,-3.47
2023-02-02T03:10:54.201Z,-.11
2023-02-02T03:11:25.551Z,-3.07
2023-02-02T03:11:57.216Z,-3.07
2023-02-02T03:12:28.167Z,-3.07
2023-02-02T03:12:58.246Z,-3.07
2023-02-02T03:13:29.914Z,-3.07
2023-02-02T03:14:00.178Z,-2.82
2023-02-02T03:14:32.370Z,-2.82
2023-02-02T03:15:03.903Z,-2.82
2023-02-02T03:15:33.970Z,-.11
2023-02-02T03:16:04.660Z,-.11
2023-02-02T03:16:35.631Z,-.11
2023-02-02T03:17:07.191Z,-.11
2023-02-02T03:17:37.570Z,-.11
2023-02-02T03:18:07.930Z,-.11
2023-02-02T03:18:39.517Z,-1.92
2023-02-02T03:19:10.103Z,-2.31
2023-02-02T03:19:41.601Z,-2.31
2023-02-02T03:20:12.571Z,-1.92
2023-02-02T03:20:44.868Z,-1.92
2023-02-02T03:21:13.888Z,-1.92
2023-02-02T03:21:46.082Z,-1.92
2023-02-02T03:22:16.933Z,-2.05
2023-02-02T03:22:47.617Z,-1.92
2023-02-02T03:23:18.004Z,-.11
2023-02-02T03:23:49.626Z,-.11
2023-02-02T03:24:20.199Z,-.11
2023-02-02T03:24:52.003Z,-.11
2023-02-02T03:25:23.351Z,-.11
2023-02-02T03:25:54.105Z,-.11
2023-02-02T03:26:24.215Z,-.11
2023-02-02T03:26:55.895Z,-.11
2023-02-02T03:27:26.878Z,-2.49
2023-02-02T03:27:57.620Z,-2.05
2023-02-02T03:28:27.887Z,-.11
2023-02-02T03:28:59.623Z,-.11
2023-02-02T03:29:29.869Z,-.11
2023-02-02T03:30:03.174Z,-.11
2023-02-02T03:30:32.147Z,-.11
2023-02-02T03:31:03.840Z,-2.05
2023-02-02T03:31:33.943Z,-.11
2023-02-02T03:32:05.773Z,-.11
2023-02-02T03:32:36.901Z,-1.92
2023-02-02T03:33:07.598Z,-.11
2023-02-02T03:33:37.904Z,-.11
2023-02-02T03:34:09.605Z,-2.82
2023-02-02T03:34:39.891Z,-.11
2023-02-02T03:35:12.410Z,-.11
2023-02-02T03:35:41.939Z,-2.31
2023-02-02T03:36:13.691Z,-2.18
2023-02-02T03:36:44.201Z,-.11
2023-02-02T03:37:15.622Z,-2.60
2023-02-02T03:37:46.901Z,-2.18
2023-02-02T03:38:16.889Z,-.11
2023-02-02T03:38:47.963Z,-2.82
2023-02-02T03:39:19.683Z,-3.25
2023-02-02T03:39:49.993Z,-.11
2023-02-02T03:40:22.175Z,-2.31
2023-02-02T03:40:51.943Z,-.11
2023-02-02T03:41:23.639Z,-2.18
2023-02-02T03:41:53.903Z,-1.92
2023-02-02T03:42:25.789Z,-1.92
2023-02-02T03:42:56.913Z,-1.92
2023-02-02T03:43:27.570Z,-1.92
2023-02-02T03:43:57.897Z,-1.92
2023-02-02T03:44:29.638Z,-2.31
2023-02-02T03:45:01.133Z,-2.60
2023-02-02T03:45:31.629Z,-.11
2023-02-02T03:46:02.300Z,-.11
2023-02-02T03:46:33.946Z,-1.92
2023-02-02T03:47:04.306Z,-2.60
2023-02-02T03:47:36.124Z,-2.71
2023-02-02T03:48:06.920Z,-2.60
2023-02-02T03:48:37.598Z,-2.18
2023-02-02T03:49:07.901Z,-2.60
2023-02-02T03:49:39.695Z,-2.82
2023-02-02T03:50:10.363Z,-1.92
2023-02-02T03:50:41.654Z,-2.71
2023-02-02T03:51:11.883Z,-3.25
2023-02-02T03:51:43.599Z,-3.25
2023-02-02T03:52:13.895Z,-3.07
2023-02-02T03:52:45.682Z,-3.07
2023-02-02T03:53:16.955Z,-3.63
2023-02-02T03:53:47.834Z,-3.25
2023-02-02T03:54:18.488Z,-3.55
2023-02-02T03:54:49.667Z,-2.71
2023-02-02T03:55:21.544Z,-2.31
2023-02-02T03:55:51.636Z,-3.25
2023-02-02T03:56:21.967Z,-3.25
2023-02-02T03:56:53.818Z,-3.55
2023-02-02T03:57:24.241Z,-2.31
2023-02-02T03:57:55.714Z,-3.07
2023-02-02T03:58:26.895Z,-3.07
2023-02-02T03:58:57.916Z,-3.47
2023-02-02T03:59:28.793Z,-3.71
2023-02-02T04:00:00.673Z,-3.83
2023-02-02T04:00:30.564Z,-2.18
2023-02-02T04:01:02.976Z,-2.60
2023-02-02T04:01:32.107Z,-2.82
2023-02-02T04:02:03.249Z,-3.07
2023-02-02T04:02:36.088Z,-3.71
2023-02-02T04:03:05.139Z,-1.92
2023-02-02T04:03:38.305Z,-1.92
2023-02-02T04:04:06.919Z,-2.18
2023-02-02T04:04:38.430Z,-2.71
2023-02-02T04:05:10.286Z,-2.31
2023-02-02T04:05:40.171Z,-.11
2023-02-02T04:06:11.757Z,-.11
2023-02-02T04:06:42.118Z,-1.92
2023-02-02T04:07:14.278Z,-2.31
2023-02-02T04:07:44.489Z,-2.18
2023-02-02T04:08:17.093Z,-1.92
2023-02-02T04:08:47.342Z,-.11
2023-02-02T04:09:16.998Z,-1.92
2023-02-02T04:09:49.119Z,-.11
2023-02-02T04:10:19.600Z,-2.71
2023-02-02T04:10:50.682Z,-2.60
2023-02-02T04:11:21.206Z,-2.05
2023-02-02T04:11:52.591Z,-2.18
2023-02-02T04:12:23.032Z,-2.31
2023-02-02T04:12:55.148Z,-2.05
2023-02-02T04:13:25.206Z,-2.71
2023-02-02T04:13:58.092Z,-2.05
2023-02-02T04:14:27.258Z,-1.92
2023-02-02T04:14:59.389Z,-.11
2023-02-02T04:15:30.367Z,-.11
2023-02-02T04:16:00.417Z,-2.49
2023-02-02T04:16:32.014Z,-2.49
2023-02-02T04:17:02.184Z,-2.60
2023-02-02T04:17:33.913Z,-2.92
2023-02-02T04:18:04.514Z,-2.82
2023-02-02T04:18:36.572Z,-.11
2023-02-02T04:19:07.192Z,-2.60
2023-02-02T04:19:38.497Z,-2.71
2023-02-02T04:20:08.403Z,-2.18
2023-02-02T04:20:40.106Z,-.11
2023-02-02T04:21:10.066Z,-2.31
2023-02-02T04:21:41.994Z,-1.92
2023-02-02T04:22:11.980Z,-.11
2023-02-02T04:22:43.966Z,-.11
2023-02-02T04:23:13.945Z,-.11
2023-02-02T04:23:46.044Z,-.11
2023-02-02T04:24:16.937Z,-.11
2023-02-02T04:24:48.384Z,-.11
2023-02-02T04:25:19.528Z,-.11
2023-02-02T04:25:50.292Z,-.11
2023-02-02T04:26:20.476Z,-2.49
2023-02-02T04:26:52.347Z,-1.92
2023-02-02T04:27:21.893Z,-3.25
2023-02-02T04:27:54.010Z,-2.49
2023-02-02T04:28:24.183Z,-.11
2023-02-02T04:28:56.315Z,-.11
2023-02-02T04:29:27.016Z,-2.31
2023-02-02T04:29:58.929Z,-2.05
2023-02-02T04:30:28.443Z,-.11
2023-02-02T04:30:59.966Z,-.11
2023-02-02T04:31:29.981Z,-2.82
2023-02-02T04:32:02.013Z,-1.92
2023-02-02T04:32:31.869Z,-.11
2023-02-02T04:33:03.948Z,-.11
2023-02-02T04:33:33.999Z,-.11
2023-02-02T04:34:05.602Z,-.11
2023-02-02T04:34:36.912Z,-.11
2023-02-02T04:35:08.173Z,-.11
2023-02-02T04:35:38.054Z,-.11
2023-02-02T04:36:10.128Z,-2.31
2023-02-02T04:36:40.076Z,-.11
2023-02-02T04:37:12.074Z,-.11
2023-02-02T04:37:42.072Z,-2.18
2023-02-02T04:38:14.078Z,-1.92
2023-02-02T04:38:44.169Z,-.11
2023-02-02T04:39:15.350Z,-.11
2023-02-02T04:39:48.182Z,-.11
2023-02-02T04:40:17.621Z,-.11
2023-02-02T04:40:47.882Z,-.11
2023-02-02T04:41:20.228Z,-1.92
2023-02-02T04:41:50.159Z,-.11
2023-02-02T04:42:21.550Z,-.11
2023-02-02T04:42:52.251Z,-.11
2023-02-02T04:43:23.866Z,-.11
2023-02-02T04:43:53.955Z,-.11
2023-02-02T04:44:25.585Z,-.11
2023-02-02T04:44:58.339Z,-.11
2023-02-02T04:45:28.027Z,-.11
2023-02-02T04:45:58.363Z,-.11
2023-02-02T04:46:30.308Z,-.11
2023-02-02T04:47:00.302Z,-.11
2023-02-02T04:47:32.265Z,-.11
2023-02-02T04:48:02.013Z,-.11
2023-02-02T04:48:33.605Z,-.11
2023-02-02T04:49:04.184Z,-.11
2023-02-02T04:49:37.071Z,-.11
2023-02-02T04:50:07.432Z,-.11
2023-02-02T04:50:37.085Z,-1.92
2023-02-02T04:51:09.913Z,-1.92
2023-02-02T04:51:39.086Z,-.11
2023-02-02T04:52:11.524Z,-.11
2023-02-02T04:52:41.127Z,-.11
2023-02-02T04:53:12.880Z,-1.92
2023-02-02T04:53:43.364Z,-.11
2023-02-02T04:54:15.078Z,-.11
2023-02-02T04:54:44.914Z,-.11
2023-02-02T04:55:19.296Z,-.11
2023-02-02T04:55:47.164Z,-.11
2023-02-02T04:56:18.106Z,-.11
2023-02-02T04:56:50.934Z,-.11
2023-02-02T04:57:19.999Z,-.11
2023-02-02T04:57:51.577Z,-.11
2023-02-02T04:58:21.993Z,-.11
2023-02-02T04:58:53.582Z,-.11
2023-02-02T04:59:24.549Z,-.11
2023-02-02T04:59:56.977Z,-.11
2023-02-02T05:00:27.130Z,-.11
2023-02-02T05:00:57.619Z,-.11
2023-02-02T05:01:27.927Z,-.11
2023-02-02T05:01:59.629Z,-.11
2023-02-02T05:02:29.856Z,-.11
2023-02-02T05:03:01.745Z,-.11
2023-02-02T05:03:32.319Z,-.11
2023-02-02T05:04:03.727Z,-.11
2023-02-02T05:04:34.222Z,-.11
2023-02-02T05:05:07.660Z,-.11
2023-02-02T05:05:36.911Z,-.11
2023-02-02T05:06:07.653Z,-.11
2023-02-02T05:06:38.629Z,-.11
2023-02-02T05:07:09.908Z,-2.31
2023-02-02T05:07:39.869Z,-2.05
2023-02-02T05:08:11.558Z,-.11
2023-02-02T05:08:41.992Z,-.11
2023-02-02T05:09:13.773Z,-.11
2023-02-02T05:09:44.566Z,-.11
2023-02-02T05:10:17.079Z,-2.18
2023-02-02T05:10:46.891Z,-2.05
2023-02-02T05:11:17.610Z,-.11
2023-02-02T05:11:47.979Z,-.11
2023-02-02T05:12:19.564Z,-.11
2023-02-02T05:12:49.864Z,-.11
2023-02-02T05:13:21.952Z,-.11
2023-02-02T05:13:51.854Z,-.11
2023-02-02T05:14:23.654Z,-.11
2023-02-02T05:14:53.889Z,-.11
2023-02-02T05:15:26.637Z,-.11
2023-02-02T05:15:57.746Z,-.11
2023-02-02T05:16:29.077Z,-.11
2023-02-02T05:16:58.064Z,-2.18
2023-02-02T05:17:29.693Z,-.11
2023-02-02T05:17:59.869Z,-.11
2023-02-02T05:18:31.734Z,-.11
2023-02-02T05:19:01.911Z,-.11
2023-02-02T05:19:33.565Z,-.11
2023-02-02T05:20:05.223Z,-.11
2023-02-02T05:20:36.693Z,-.11
2023-02-02T05:21:07.017Z,-.11
2023-02-02T05:21:37.582Z,-.11
2023-02-02T05:22:07.899Z,-.11
2023-02-02T05:22:39.559Z,-.11
2023-02-02T05:23:09.876Z,-.11
2023-02-02T05:23:41.606Z,-.11
2023-02-02T05:24:11.995Z,-.11
2023-02-02T05:24:43.593Z,-.11
2023-02-02T05:25:14.563Z,-.11
2023-02-02T05:25:45.867Z,-.11
2023-02-02T05:26:16.962Z,-.11
2023-02-02T05:26:48.554Z,-.11
2023-02-02T05:27:17.856Z,-.11
2023-02-02T05:27:49.552Z,-.11
2023-02-02T05:28:19.883Z,-.11
2023-02-02T05:28:51.632Z,-.11
2023-02-02T05:29:21.852Z,-.11
2023-02-02T05:29:53.671Z,-.11
2023-02-02T05:30:25.334Z,-.11
2023-02-02T05:30:55.605Z,-.11
2023-02-02T05:31:27.045Z,-.11
2023-02-02T05:31:57.674Z,-1.92
2023-02-02T05:32:27.931Z,-2.05
2023-02-02T05:32:59.570Z,-.11
2023-02-02T05:33:29.846Z,-.11
2023-02-02T05:34:01.599Z,-.11
2023-02-02T05:34:31.923Z,-.11
2023-02-02T05:35:04.195Z,-.11
2023-02-02T05:35:34.184Z,-.11
2023-02-02T05:36:05.554Z,-.11
2023-02-02T05:36:36.886Z,-1.92
2023-02-02T05:37:07.560Z,-.11
2023-02-02T05:37:38.002Z,-.11
2023-02-02T05:38:09.573Z,-2.31
2023-02-02T05:38:39.853Z,-.11
2023-02-02T05:39:10.995Z,-.11
2023-02-02T05:39:42.579Z,-.11
2023-02-02T05:40:13.737Z,-.11
2023-02-02T05:40:46.322Z,-.11
2023-02-02T05:41:15.177Z,-.11
2023-02-02T05:41:47.752Z,-.11
2023-02-02T05:42:17.161Z,-.11
2023-02-02T05:42:49.574Z,-.11
2023-02-02T05:43:20.706Z,-.11
2023-02-02T05:43:50.558Z,-.11
2023-02-02T05:44:21.113Z,-.11
2023-02-02T05:44:53.543Z,-.11
2023-02-02T05:45:24.327Z,-.11
2023-02-02T05:45:54.628Z,-.11
2023-02-02T05:46:25.160Z,-.11
2023-02-02T05:46:57.582Z,-.11
2023-02-02T05:47:27.269Z,-.11
2023-02-02T05:47:58.623Z,-.11
2023-02-02T05:48:29.436Z,-.11
2023-02-02T05:49:00.725Z,-.11
2023-02-02T05:49:31.053Z,-.11
2023-02-02T05:50:03.596Z,-.11
2023-02-02T05:50:33.270Z,-.11
2023-02-02T05:51:05.263Z,-.11
2023-02-02T05:51:35.326Z,-.11
2023-02-02T05:52:07.874Z,-.11
2023-02-02T05:52:37.274Z,-.11
2023-02-02T05:53:08.866Z,-.11
2023-02-02T05:53:38.954Z,-.11
2023-02-02T05:54:10.645Z,-.11
2023-02-02T05:54:41.126Z,-.11
2023-02-02T05:55:13.435Z,-.11
2023-02-02T05:55:43.390Z,-.11
2023-02-02T05:56:14.951Z,-.11
2023-02-02T05:56:45.072Z,-.11
2023-02-02T05:57:17.880Z,-.11
2023-02-02T05:57:47.094Z,-.11
2023-02-02T05:58:18.683Z,-.11
2023-02-02T05:58:49.064Z,-.11
2023-02-02T05:59:20.703Z,-.11
2023-02-02T05:59:51.063Z,-.11
2023-02-02T06:00:24.137Z,-.11
2023-02-02T06:00:56.423Z,-.11
2023-02-02T06:01:25.150Z,-.11
2023-02-02T06:01:55.066Z,-.11
2023-02-02T06:02:27.764Z,-.11
2023-02-02T06:02:57.212Z,-.11
2023-02-02T06:03:28.662Z,-.11
2023-02-02T06:03:58.945Z,-.11
2023-02-02T06:04:30.922Z,-.11
2023-02-02T06:05:01.784Z,-.11
2023-02-02T06:05:32.790Z,-.11
2023-02-02T06:06:04.879Z,-.11
2023-02-02T06:06:34.745Z,-.11
2023-02-02T06:07:05.622Z,-.11
2023-02-02T06:07:38.972Z,-.11
2023-02-02T06:08:07.343Z,-.11
2023-02-02T06:08:38.339Z,-.11
2023-02-02T06:09:09.657Z,-.11
2023-02-02T06:09:40.491Z,-.11
2023-02-02T06:10:12.424Z,-.11
2023-02-02T06:10:42.354Z,-.11
2023-02-02T06:11:13.645Z,-.11
2023-02-02T06:11:44.350Z,-.11
2023-02-02T06:12:15.700Z,-.11
2023-02-02T06:12:46.964Z,-.11
2023-02-02T06:13:17.973Z,-.11
2023-02-02T06:13:47.842Z,-.11
2023-02-02T06:14:19.754Z,-.11
2023-02-02T06:14:50.069Z,-.11
2023-02-02T06:15:22.620Z,-.11
2023-02-02T06:15:51.955Z,-.11
2023-02-02T06:16:23.596Z,-.11
2023-02-02T06:16:53.884Z,-.11
2023-02-02T06:17:25.582Z,-.11
2023-02-02T06:17:56.861Z,-.11
2023-02-02T06:18:28.034Z,-.11
2023-02-02T06:18:58.180Z,-.11
2023-02-02T06:19:30.069Z,-.11
2023-02-02T06:20:00.424Z,-.11
2023-02-02T06:20:36.189Z,-.11
2023-02-02T06:21:02.052Z,-.11
2023-02-02T06:21:34.277Z,-.11
2023-02-02T06:22:04.475Z,-.11
2023-02-02T06:22:36.479Z,-.11
2023-02-02T06:23:06.863Z,-.11
2023-02-02T06:23:37.558Z,-.11
2023-02-02T06:24:07.872Z,-.11
2023-02-02T06:24:39.568Z,-.11
2023-02-02T06:25:10.655Z,-.11
2023-02-02T06:25:41.538Z,-.11
2023-02-02T06:26:11.935Z,-.11
2023-02-02T06:26:44.201Z,-.11
2023-02-02T06:27:13.982Z,-.11
2023-02-02T06:27:46.174Z,-.11
2023-02-02T06:28:16.841Z,-.11
2023-02-02T06:28:48.456Z,-.11
2023-02-02T06:29:17.966Z,-.11
2023-02-02T06:29:51.176Z,-.11
2023-02-02T06:30:20.848Z,-.11
2023-02-02T06:30:51.865Z,-.11
2023-02-02T06:31:22.507Z,-.11
2023-02-02T06:31:55.501Z,-.11
2023-02-02T06:32:24.219Z,-.11
2023-02-02T06:32:55.050Z,-.11
2023-02-02T06:33:27.856Z,-.11
2023-02-02T06:33:56.851Z,-.11
2023-02-02T06:34:28.676Z,-.11
2023-02-02T06:34:59.650Z,-.11
2023-02-02T06:35:30.576Z,-.11
2023-02-02T06:36:01.043Z,-.11
2023-02-02T06:36:32.633Z,-.11
2023-02-02T06:37:02.996Z,-.11
2023-02-02T06:37:34.586Z,-.11
2023-02-02T06:38:05.540Z,-.11
2023-02-02T06:38:36.873Z,-.11
2023-02-02T06:39:06.858Z,-.11
2023-02-02T06:39:38.586Z,-.11
2023-02-02T06:40:09.349Z,-.11
2023-02-02T06:40:41.032Z,-.11
2023-02-02T06:41:10.930Z,-.11
2023-02-02T06:41:42.557Z,-.11
2023-02-02T06:42:21.346Z,-.11
2023-02-02T06:42:44.887Z,-.11
2023-02-02T06:43:14.845Z,-.11
2023-02-02T06:43:47.554Z,-.11
2023-02-02T06:44:17.082Z,-.11
2023-02-02T06:44:48.584Z,-.11
2023-02-02T06:45:20.806Z,-.11
2023-02-02T06:45:51.500Z,-.11
2023-02-02T06:46:20.936Z,-.11
2023-02-02T06:46:52.572Z,-.11